CPW6 weather

Midland (Huronia District Hospital) Heliport
Midland, Ontario, Canada

Public forecast

Using degrees Celsius for public forecast. Weather courtesy of forecast.io.

Closest aviation weather report (METAR) to Midland (Huronia District Hospital) Heliport

Closest report is CFB Borden, 28.2 nm (52.3 km) S. Retrieved 2019/10/17 01:00 UTC (31 minutes ago):

CYBN 170100Z AUTO 18002KT 9SM SCT039 SCT053 SCT058 OVC067 07/06 A2946 RMK SLP980

Closest aviation forecast (TAF) to Midland (Huronia District Hospital) Heliport

Closest forecast is CFB Borden, 28.2 nm (52.3 km) S. Retrieved 2019-10-17 00:33 UTC (58 minutes ago):

TAF TAF CYBN 162330Z 1700/1712 22005KT P6SM FEW015 BKN030 TEMPO 1700/1703 4SM -RA BR FEW008 BKN015 OVC030 FM170300 VRB03KT 5SM BR FEW006 BKN015 TEMPO 1703/1707 2SM -SHRA BR BKN006 OVC015 BECMG 1705/1707 32010KT FM170700 32010KT 4SM -SHRA BR BKN008 OVC015 RMK FCST BASED ON AUTO OBS NXT FCST BY 170600Z